sensor_id;sensor_type;location;lat;lon;timestamp;pressure;altitude;pressure_sealevel;temperature;humidity
32642;BME280;19323;56.072;9.698;2022-08-21T00:01:32;100797.03;;;30.06;30.99
32642;BME280;19323;56.072;9.698;2022-08-21T00:04:04;100784.75;;;30.04;31.16
32642;BME280;19323;56.072;9.698;2022-08-21T00:06:31;100788.94;;;30.06;30.90
32642;BME280;19323;56.072;9.698;2022-08-21T00:09:00;100776.00;;;30.02;30.82
32642;BME280;19323;56.072;9.698;2022-08-21T00:11:32;100782.06;;;30.04;30.71
32642;BME280;19323;56.072;9.698;2022-08-21T00:13:58;100786.44;;;30.05;31.07
32642;BME280;19323;56.072;9.698;2022-08-21T00:16:25;100784.75;;;30.04;30.89
32642;BME280;19323;56.072;9.698;2022-08-21T00:18:52;100783.09;;;30.03;30.86
32642;BME280;19323;56.072;9.698;2022-08-21T00:21:18;100766.16;;;29.94;30.94
32642;BME280;19323;56.072;9.698;2022-08-21T00:23:45;100772.88;;;29.98;30.94
32642;BME280;19323;56.072;9.698;2022-08-21T00:26:11;100772.47;;;30.01;31.05
32642;BME280;19323;56.072;9.698;2022-08-21T00:28:38;100770.59;;;30.02;30.95
32642;BME280;19323;56.072;9.698;2022-08-21T00:31:04;100771.44;;;30.02;31.03
32642;BME280;19323;56.072;9.698;2022-08-21T00:33:31;100769.78;;;30.01;31.25
32642;BME280;19323;56.072;9.698;2022-08-21T00:35:58;100761.69;;;30.01;30.96
32642;BME280;19323;56.072;9.698;2022-08-21T00:38:24;100758.16;;;30.01;31.03
32642;BME280;19323;56.072;9.698;2022-08-21T00:40:57;100757.31;;;30.00;30.97
32642;BME280;19323;56.072;9.698;2022-08-21T00:43:45;100757.31;;;30.00;30.87
32642;BME280;19323;56.072;9.698;2022-08-21T00:46:11;100755.63;;;29.99;30.92
32642;BME280;19323;56.072;9.698;2022-08-21T00:48:38;100767.25;;;29.99;31.11
32642;BME280;19323;56.072;9.698;2022-08-21T00:51:17;100763.72;;;29.99;31.14
32642;BME280;19323;56.072;9.698;2022-08-21T00:53:51;100765.59;;;29.98;30.96
32642;BME280;19323;56.072;9.698;2022-08-21T00:56:21;100756.38;;;29.93;30.81
32642;BME280;19323;56.072;9.698;2022-08-21T00:58:48;100763.06;;;29.97;30.97
32642;BME280;19323;56.072;9.698;2022-08-21T01:01:20;100762.25;;;29.96;30.83
32642;BME280;19323;56.072;9.698;2022-08-21T01:03:47;100772.22;;;29.96;31.11
32642;BME280;19323;56.072;9.698;2022-08-21T01:06:15;100758.41;;;29.91;30.71
32642;BME280;19323;56.072;9.698;2022-08-21T01:08:42;100766.81;;;29.96;30.93
32642;BME280;19323;56.072;9.698;2022-08-21T01:11:13;100750.72;;;29.88;31.00
32642;BME280;19323;56.072;9.698;2022-08-21T01:13:40;100749.66;;;29.89;30.72
32642;BME280;19323;56.072;9.698;2022-08-21T01:16:14;100758.91;;;29.94;30.81
32642;BME280;19323;56.072;9.698;2022-08-21T01:18:42;100756.38;;;29.93;30.70
32642;BME280;19323;56.072;9.698;2022-08-21T01:21:17;100760.75;;;29.94;30.83
32642;BME280;19323;56.072;9.698;2022-08-21T01:23:48;100759.06;;;29.93;30.86
32642;BME280;19323;56.072;9.698;2022-08-21T01:26:17;100660.06;;;29.34;30.55
32642;BME280;19323;56.072;9.698;2022-08-21T01:31:28;100741.31;;;29.84;30.73
32642;BME280;19323;56.072;9.698;2022-08-21T01:33:56;100753.03;;;29.91;30.76
32642;BME280;19323;56.072;9.698;2022-08-21T01:36:23;100743.00;;;29.85;30.95
32642;BME280;19323;56.072;9.698;2022-08-21T01:38:50;100748.66;;;29.90;30.61
32642;BME280;19323;56.072;9.698;2022-08-21T01:41:17;100746.53;;;29.85;30.89
32642;BME280;19323;56.072;9.698;2022-08-21T01:43:44;100749.66;;;29.89;30.58
32642;BME280;19323;56.072;9.698;2022-08-21T01:46:12;100749.66;;;29.89;30.66
32642;BME280;19323;56.072;9.698;2022-08-21T01:48:39;100749.66;;;29.89;30.68
32642;BME280;19323;56.072;9.698;2022-08-21T01:51:06;100755.06;;;29.89;30.69
32642;BME280;19323;56.072;9.698;2022-08-21T01:53:33;100749.88;;;29.87;30.71
32642;BME280;19323;56.072;9.698;2022-08-21T01:56:07;100757.13;;;29.87;30.41
32642;BME280;19323;56.072;9.698;2022-08-21T01:58:39;100758.16;;;29.86;30.72
32642;BME280;19323;56.072;9.698;2022-08-21T02:01:06;100751.72;;;29.87;30.60
32642;BME280;19323;56.072;9.698;2022-08-21T02:03:33;100744.38;;;29.81;30.75
32642;BME280;19323;56.072;9.698;2022-08-21T02:06:03;100759.19;;;29.85;30.59
32642;BME280;19323;56.072;9.698;2022-08-21T02:08:30;100754.81;;;29.84;30.64
32642;BME280;19323;56.072;9.698;2022-08-21T02:10:56;100753.78;;;29.85;30.59
32642;BME280;19323;56.072;9.698;2022-08-21T02:13:23;100759.19;;;29.85;30.50
32642;BME280;19323;56.072;9.698;2022-08-21T02:15:50;100757.50;;;29.84;30.49
32642;BME280;19323;56.072;9.698;2022-08-21T02:18:16;100749.59;;;29.82;30.56
32642;BME280;19323;56.072;9.698;2022-08-21T02:20:46;100754.81;;;29.84;30.38
32642;BME280;19323;56.072;9.698;2022-08-21T02:23:14;100747.75;;;29.83;30.57
32642;BME280;19323;56.072;9.698;2022-08-21T02:25:45;100743.34;;;29.82;30.55
32642;BME280;19323;56.072;9.698;2022-08-21T02:28:13;100747.91;;;29.81;30.50
32642;BME280;19323;56.072;9.698;2022-08-21T02:30:44;100748.75;;;29.82;30.51
32642;BME280;19323;56.072;9.698;2022-08-21T02:33:12;100740.84;;;29.80;30.66
32642;BME280;19323;56.072;9.698;2022-08-21T02:35:40;100739.00;;;29.81;30.47
32642;BME280;19323;56.072;9.698;2022-08-21T02:38:12;100733.59;;;29.81;30.66
32642;BME280;19323;56.072;9.698;2022-08-21T02:40:41;100723.81;;;29.80;30.46
32642;BME280;19323;56.072;9.698;2022-08-21T02:43:13;100731.06;;;29.79;30.46
32642;BME280;19323;56.072;9.698;2022-08-21T02:45:42;100721.28;;;29.78;30.50
32642;BME280;19323;56.072;9.698;2022-08-21T02:48:12;100722.31;;;29.77;30.31
32642;BME280;19323;56.072;9.698;2022-08-21T02:50:42;100711.69;;;29.75;30.46
32642;BME280;19323;56.072;9.698;2022-08-21T02:53:11;100704.00;;;29.72;30.36
32642;BME280;19323;56.072;9.698;2022-08-21T02:55:47;100707.34;;;29.74;30.28
32642;BME280;19323;56.072;9.698;2022-08-21T02:58:16;100714.78;;;29.72;30.48
32642;BME280;19323;56.072;9.698;2022-08-21T03:00:44;100704.16;;;29.71;30.40
32642;BME280;19323;56.072;9.698;2022-08-21T03:03:11;100705.88;;;29.72;30.20
32642;BME280;19323;56.072;9.698;2022-08-21T03:05:40;100699.59;;;29.71;30.47
32642;BME280;19323;56.072;9.698;2022-08-21T03:08:08;100705.00;;;29.71;30.25
32642;BME280;19323;56.072;9.698;2022-08-21T03:10:38;100700.66;;;29.70;30.44
32642;BME280;19323;56.072;9.698;2022-08-21T03:13:06;100689.06;;;29.62;30.26
32642;BME280;19323;56.072;9.698;2022-08-21T03:15:33;100700.66;;;29.70;30.39
32642;BME280;19323;56.072;9.698;2022-08-21T03:18:01;100688.69;;;29.65;30.28
32642;BME280;19323;56.072;9.698;2022-08-21T03:20:28;100696.25;;;29.69;30.11
32642;BME280;19323;56.072;9.698;2022-08-21T03:22:55;100696.25;;;29.69;30.33
32642;BME280;19323;56.072;9.698;2022-08-21T03:25:24;100691.88;;;29.68;30.36
32642;BME280;19323;56.072;9.698;2022-08-21T03:28:10;100697.25;;;29.68;30.41
32642;BME280;19323;56.072;9.698;2022-08-21T03:30:40;100678.66;;;29.58;30.26
32642;BME280;19323;56.072;9.698;2022-08-21T03:33:07;100680.34;;;29.60;30.17
32642;BME280;19323;56.072;9.698;2022-08-21T03:35:37;100692.03;;;29.67;30.28
32642;BME280;19323;56.072;9.698;2022-08-21T03:38:04;100683.13;;;29.66;30.11
32642;BME280;19323;56.072;9.698;2022-08-21T03:40:30;100664.06;;;29.53;30.24
32642;BME280;19323;56.072;9.698;2022-08-21T03:42:57;100686.19;;;29.63;30.39
32642;BME280;19323;56.072;9.698;2022-08-21T03:45:25;100692.44;;;29.64;30.36
32642;BME280;19323;56.072;9.698;2022-08-21T03:48:00;100694.09;;;29.65;30.28
32642;BME280;19323;56.072;9.698;2022-08-21T03:50:31;100692.44;;;29.64;30.31
32642;BME280;19323;56.072;9.698;2022-08-21T03:53:00;100688.03;;;29.63;30.33
32642;BME280;19323;56.072;9.698;2022-08-21T03:55:27;100686.19;;;29.63;30.43
32642;BME280;19323;56.072;9.698;2022-08-21T03:57:54;100684.50;;;29.62;30.22
32642;BME280;19323;56.072;9.698;2022-08-21T04:00:21;100669.19;;;29.48;30.37
32642;BME280;19323;56.072;9.698;2022-08-21T04:02:47;100681.91;;;29.54;30.19
32642;BME280;19323;56.072;9.698;2022-08-21T04:05:15;100686.94;;;29.57;30.25
32642;BME280;19323;56.072;9.698;2022-08-21T04:07:55;100687.38;;;29.61;30.18
32642;BME280;19323;56.072;9.698;2022-08-21T04:10:21;100669.84;;;29.50;30.44
32642;BME280;19323;56.072;9.698;2022-08-21T04:12:49;100697.56;;;29.58;30.12
32642;BME280;19323;56.072;9.698;2022-08-21T04:15:15;100701.09;;;29.59;30.29
32642;BME280;19323;56.072;9.698;2022-08-21T04:17:42;100703.78;;;29.59;30.29
32642;BME280;19323;56.072;9.698;2022-08-21T04:20:08;100692.59;;;29.47;30.17
32642;BME280;19323;56.072;9.698;2022-08-21T04:22:35;100708.53;;;29.57;30.31
32642;BME280;19323;56.072;9.698;2022-08-21T04:25:02;100712.06;;;29.57;30.22
32642;BME280;19323;56.072;9.698;2022-08-21T04:27:28;100711.22;;;29.57;30.52
32642;BME280;19323;56.072;9.698;2022-08-21T04:29:55;100706.84;;;29.56;30.43
32642;BME280;19323;56.072;9.698;2022-08-21T04:32:25;100707.88;;;29.55;30.42
32642;BME280;19323;56.072;9.698;2022-08-21T04:35:04;100714.28;;;29.54;30.58
32642;BME280;19323;56.072;9.698;2022-08-21T04:37:30;100708.06;;;29.53;30.63
32642;BME280;19323;56.072;9.698;2022-08-21T04:39:57;100710.09;;;29.51;30.43
32642;BME280;19323;56.072;9.698;2022-08-21T04:42:24;100705.56;;;29.52;30.33
32642;BME280;19323;56.072;9.698;2022-08-21T04:44:51;100713.84;;;29.50;30.48
32642;BME280;19323;56.072;9.698;2022-08-21T04:47:18;100695.69;;;29.44;30.71
32642;BME280;19323;56.072;9.698;2022-08-21T04:49:45;100708.44;;;29.50;30.57
32642;BME280;19323;56.072;9.698;2022-08-21T04:52:13;100707.78;;;29.48;30.53
32642;BME280;19323;56.072;9.698;2022-08-21T04:54:43;100705.94;;;29.49;30.57
32642;BME280;19323;56.072;9.698;2022-08-21T04:57:12;100706.75;;;29.49;30.50
32642;BME280;19323;56.072;9.698;2022-08-21T04:59:44;100699.69;;;29.48;30.74
32642;BME280;19323;56.072;9.698;2022-08-21T05:02:12;100693.66;;;29.46;30.68
32642;BME280;19323;56.072;9.698;2022-08-21T05:04:50;100688.44;;;29.45;30.59
32642;BME280;19323;56.072;9.698;2022-08-21T05:07:24;100692.59;;;29.47;30.57
32642;BME280;19323;56.072;9.698;2022-08-21T05:10:09;100693.47;;;29.48;30.52
32642;BME280;19323;56.072;9.698;2022-08-21T05:12:40;100697.00;;;29.48;30.45
32642;BME280;19323;56.072;9.698;2022-08-21T05:15:09;100687.22;;;29.47;30.67
32642;BME280;19323;56.072;9.698;2022-08-21T05:17:39;100691.78;;;29.47;30.66
32642;BME280;19323;56.072;9.698;2022-08-21T05:20:06;100692.59;;;29.47;30.62
32642;BME280;19323;56.072;9.698;2022-08-21T05:22:33;100684.63;;;29.39;30.55
32642;BME280;19323;56.072;9.698;2022-08-21T05:24:59;100692.59;;;29.47;30.59
32642;BME280;19323;56.072;9.698;2022-08-21T05:27:26;100698.88;;;29.48;30.59
32642;BME280;19323;56.072;9.698;2022-08-21T05:29:57;100696.16;;;29.48;30.59
32642;BME280;19323;56.072;9.698;2022-08-21T05:32:23;100695.13;;;29.49;30.68
32642;BME280;19323;56.072;9.698;2022-08-21T05:34:50;100696.16;;;29.48;30.79
32642;BME280;19323;56.072;9.698;2022-08-21T05:37:16;100682.75;;;29.40;30.68
32642;BME280;19323;56.072;9.698;2022-08-21T05:39:43;100695.97;;;29.49;30.48
32642;BME280;19323;56.072;9.698;2022-08-21T05:42:29;100687.03;;;29.49;30.69
32642;BME280;19323;56.072;9.698;2022-08-21T05:44:56;100692.44;;;29.49;30.69
32642;BME280;19323;56.072;9.698;2022-08-21T05:47:24;100695.13;;;29.49;30.71
32642;BME280;19323;56.072;9.698;2022-08-21T05:49:50;100687.88;;;29.49;30.57
32642;BME280;19323;56.072;9.698;2022-08-21T05:52:21;100690.56;;;29.49;30.68
32642;BME280;19323;56.072;9.698;2022-08-21T05:54:47;100698.66;;;29.49;30.61
32642;BME280;19323;56.072;9.698;2022-08-21T05:57:14;100682.75;;;29.40;30.87
32642;BME280;19323;56.072;9.698;2022-08-21T05:59:40;100677.53;;;29.38;30.88
32642;BME280;19323;56.072;9.698;2022-08-21T06:02:07;100687.88;;;29.49;30.80
32642;BME280;19323;56.072;9.698;2022-08-21T06:04:38;100691.44;;;29.50;30.83
32642;BME280;19323;56.072;9.698;2022-08-21T06:07:05;100687.88;;;29.49;30.69
32642;BME280;19323;56.072;9.698;2022-08-21T06:09:32;100693.25;;;29.49;30.81
32642;BME280;19323;56.072;9.698;2022-08-21T06:12:09;100687.03;;;29.49;30.83
32642;BME280;19323;56.072;9.698;2022-08-21T06:14:38;100689.72;;;29.49;31.09
32642;BME280;19323;56.072;9.698;2022-08-21T06:17:11;100695.78;;;29.51;31.01
32642;BME280;19323;56.072;9.698;2022-08-21T06:19:38;100699.53;;;29.50;31.05
32642;BME280;19323;56.072;9.698;2022-08-21T06:22:05;100683.25;;;29.43;31.01
32642;BME280;19323;56.072;9.698;2022-08-21T06:24:32;100698.47;;;29.51;31.02
32642;BME280;19323;56.072;9.698;2022-08-21T06:27:04;100700.34;;;29.50;31.04
32642;BME280;19323;56.072;9.698;2022-08-21T06:29:34;100693.09;;;29.51;31.10
32642;BME280;19323;56.072;9.698;2022-08-21T06:32:11;100687.22;;;29.47;31.21
32642;BME280;19323;56.072;9.698;2022-08-21T06:34:39;100633.28;;;29.17;31.05
32642;BME280;19323;56.072;9.698;2022-08-21T06:37:07;100690.22;;;29.52;31.07
32642;BME280;19323;56.072;9.698;2022-08-21T06:39:33;100666.56;;;29.40;31.20
32642;BME280;19323;56.072;9.698;2022-08-21T06:42:00;100676.81;;;29.44;31.46
32642;BME280;19323;56.072;9.698;2022-08-21T06:44:30;100692.06;;;29.52;31.30
32642;BME280;19323;56.072;9.698;2022-08-21T06:46:56;100680.16;;;29.46;31.63
32642;BME280;19323;56.072;9.698;2022-08-21T06:49:23;100679.97;;;29.48;31.39
32642;BME280;19323;56.072;9.698;2022-08-21T06:51:51;100679.13;;;29.47;31.59
32642;BME280;19323;56.072;9.698;2022-08-21T06:54:17;100678.59;;;29.52;31.57
32642;BME280;19323;56.072;9.698;2022-08-21T06:56:44;100638.88;;;29.31;31.89
32642;BME280;19323;56.072;9.698;2022-08-21T06:59:10;100668.41;;;29.54;31.93
32642;BME280;19323;56.072;9.698;2022-08-21T07:01:40;100670.09;;;29.55;32.08
32642;BME280;19323;56.072;9.698;2022-08-21T07:04:07;100665.72;;;29.54;32.21
32642;BME280;19323;56.072;9.698;2022-08-21T07:06:34;100670.09;;;29.55;32.39
32642;BME280;19323;56.072;9.698;2022-08-21T07:09:00;100662.84;;;29.55;32.77
32642;BME280;19323;56.072;9.698;2022-08-21T07:11:27;100656.59;;;29.55;32.86
32642;BME280;19323;56.072;9.698;2022-08-21T07:13:54;100658.28;;;29.56;32.94
32642;BME280;19323;56.072;9.698;2022-08-21T07:16:22;100652.03;;;29.55;33.11
32642;BME280;19323;56.072;9.698;2022-08-21T07:18:49;100640.34;;;29.48;33.26
32642;BME280;19323;56.072;9.698;2022-08-21T07:21:16;100650.19;;;29.56;33.24
32642;BME280;19323;56.072;9.698;2022-08-21T07:23:47;100637.63;;;29.48;33.38
32642;BME280;19323;56.072;9.698;2022-08-21T07:26:17;100645.44;;;29.58;33.73
32642;BME280;19323;56.072;9.698;2022-08-21T07:28:44;100642.53;;;29.60;33.32
32642;BME280;19323;56.072;9.698;2022-08-21T07:31:13;100636.31;;;29.59;33.49
32642;BME280;19323;56.072;9.698;2022-08-21T07:33:41;100639.84;;;29.60;33.61
32642;BME280;19323;56.072;9.698;2022-08-21T07:36:08;100637.97;;;29.60;33.67
32642;BME280;19323;56.072;9.698;2022-08-21T07:38:36;100644.03;;;29.62;33.64
32642;BME280;19323;56.072;9.698;2022-08-21T07:41:08;100644.22;;;29.61;33.92
32642;BME280;19323;56.072;9.698;2022-08-21T07:43:38;100633.63;;;29.59;34.13
32642;BME280;19323;56.072;9.698;2022-08-21T07:46:11;100632.22;;;29.63;34.27
32642;BME280;19323;56.072;9.698;2022-08-21T07:48:44;100632.88;;;29.65;34.34
32642;BME280;19323;56.072;9.698;2022-08-21T07:51:13;100636.59;;;29.64;34.30
32642;BME280;19323;56.072;9.698;2022-08-21T07:53:40;100627.84;;;29.62;34.44
32642;BME280;19323;56.072;9.698;2022-08-21T07:56:07;100637.22;;;29.66;34.43
32642;BME280;19323;56.072;9.698;2022-08-21T07:58:34;100637.22;;;29.66;34.59
32642;BME280;19323;56.072;9.698;2022-08-21T08:01:01;100632.88;;;29.65;34.63
32642;BME280;19323;56.072;9.698;2022-08-21T08:03:27;100638.06;;;29.67;34.41
32642;BME280;19323;56.072;9.698;2022-08-21T08:05:55;100651.38;;;29.68;34.36
32642;BME280;19323;56.072;9.698;2022-08-21T08:08:22;100640.75;;;29.67;34.65
32642;BME280;19323;56.072;9.698;2022-08-21T08:10:50;100630.63;;;29.69;34.71
32642;BME280;19323;56.072;9.698;2022-08-21T08:13:17;100630.81;;;29.67;34.59
32642;BME280;19323;56.072;9.698;2022-08-21T08:15:44;100630.47;;;29.70;34.73
32642;BME280;19323;56.072;9.698;2022-08-21T08:18:10;100624.88;;;29.72;34.87
32642;BME280;19323;56.072;9.698;2022-08-21T08:20:37;100626.06;;;29.69;35.08
32642;BME280;19323;56.072;9.698;2022-08-21T08:23:03;100621.16;;;29.73;35.04
32642;BME280;19323;56.072;9.698;2022-08-21T08:25:30;100611.47;;;29.64;34.82
32642;BME280;19323;56.072;9.698;2022-08-21T08:28:03;100628.22;;;29.74;34.93
32642;BME280;19323;56.072;9.698;2022-08-21T08:30:43;100612.94;;;29.66;34.64
32642;BME280;19323;56.072;9.698;2022-08-21T08:33:10;100607.81;;;29.71;35.54
32642;BME280;19323;56.072;9.698;2022-08-21T08:35:36;100615.56;;;29.74;35.47
32642;BME280;19323;56.072;9.698;2022-08-21T08:38:04;100623.72;;;29.81;35.08
32642;BME280;19323;56.072;9.698;2022-08-21T08:43:34;100612.53;;;29.84;34.87
32642;BME280;19323;56.072;9.698;2022-08-21T08:46:14;100609.25;;;29.89;34.82
32642;BME280;19323;56.072;9.698;2022-08-21T08:51:57;100590.75;;;29.86;34.61
32642;BME280;19323;56.072;9.698;2022-08-21T08:54:32;100584.25;;;29.80;34.68
32642;BME280;19323;56.072;9.698;2022-08-21T08:57:00;100595.50;;;29.84;34.79
32642;BME280;19323;56.072;9.698;2022-08-21T08:59:38;100589.28;;;29.83;34.86
32642;BME280;19323;56.072;9.698;2022-08-21T09:02:05;100597.19;;;29.85;36.18
32642;BME280;19323;56.072;9.698;2022-08-21T09:04:34;100602.28;;;29.94;35.71
32642;BME280;19323;56.072;9.698;2022-08-21T09:12:52;100608.56;;;29.80;35.57
32642;BME280;19323;56.072;9.698;2022-08-21T09:18:30;100596.91;;;29.80;36.11
32642;BME280;19323;56.072;9.698;2022-08-21T09:21:09;100596.91;;;29.80;35.70
32642;BME280;19323;56.072;9.698;2022-08-21T09:29:20;100601.09;;;29.82;35.54
32642;BME280;19323;56.072;9.698;2022-08-21T09:31:49;100588.19;;;29.77;35.45
32642;BME280;19323;56.072;9.698;2022-08-21T09:34:25;100594.50;;;29.85;35.57
32642;BME280;19323;56.072;9.698;2022-08-21T09:36:52;100596.75;;;29.81;35.64
32642;BME280;19323;56.072;9.698;2022-08-21T09:39:27;100602.59;;;29.85;35.84
32642;BME280;19323;56.072;9.698;2022-08-21T09:41:59;100610.06;;;29.83;36.13
32642;BME280;19323;56.072;9.698;2022-08-21T09:44:29;100602.97;;;29.82;35.51
32642;BME280;19323;56.072;9.698;2022-08-21T09:46:56;100601.31;;;29.81;35.94
32642;BME280;19323;56.072;9.698;2022-08-21T09:49:42;100601.25;;;29.74;36.08
32642;BME280;19323;56.072;9.698;2022-08-21T09:52:22;100611.25;;;29.80;36.22
32642;BME280;19323;56.072;9.698;2022-08-21T09:54:54;100608.75;;;29.78;36.29
32642;BME280;19323;56.072;9.698;2022-08-21T09:57:26;100612.47;;;29.77;36.25
32642;BME280;19323;56.072;9.698;2022-08-21T10:02:46;100632.78;;;29.73;36.40
32642;BME280;19323;56.072;9.698;2022-08-21T10:05:22;100632.78;;;29.73;36.82
32642;BME280;19323;56.072;9.698;2022-08-21T10:07:50;100636.50;;;29.72;36.57
32642;BME280;19323;56.072;9.698;2022-08-21T10:10:25;100608.19;;;29.68;36.10
32642;BME280;19323;56.072;9.698;2022-08-21T10:18:29;100611.00;;;29.60;36.36
32642;BME280;19323;56.072;9.698;2022-08-21T10:21:05;100621.13;;;29.58;36.46
32642;BME280;19323;56.072;9.698;2022-08-21T10:29:45;100619.38;;;29.65;36.11
32642;BME280;19323;56.072;9.698;2022-08-21T10:37:52;100623.72;;;29.66;36.07
32642;BME280;19323;56.072;9.698;2022-08-21T10:46:04;100609.69;;;29.71;35.84
32642;BME280;19323;56.072;9.698;2022-08-21T10:48:51;100613.44;;;29.70;35.94
32642;BME280;19323;56.072;9.698;2022-08-21T10:51:41;100625.72;;;29.72;36.14
32642;BME280;19323;56.072;9.698;2022-08-21T10:54:17;100618.44;;;29.73;36.33
32642;BME280;19323;56.072;9.698;2022-08-21T10:56:52;100615.56;;;29.74;36.42
32642;BME280;19323;56.072;9.698;2022-08-21T10:59:30;100609.13;;;29.75;36.33
32642;BME280;19323;56.072;9.698;2022-08-21T11:02:17;100608.88;;;29.70;36.45
32642;BME280;19323;56.072;9.698;2022-08-21T11:04:56;100613.50;;;29.76;36.46
32642;BME280;19323;56.072;9.698;2022-08-21T11:07:36;100608.13;;;29.76;36.17
32642;BME280;19323;56.072;9.698;2022-08-21T11:10:13;100627.84;;;29.77;35.91
32642;BME280;19323;56.072;9.698;2022-08-21T11:12:47;100622.44;;;29.77;36.17
32642;BME280;19323;56.072;9.698;2022-08-21T11:18:03;100584.81;;;29.75;36.62
32642;BME280;19323;56.072;9.698;2022-08-21T11:20:43;100576.28;;;29.72;36.19
32642;BME280;19323;56.072;9.698;2022-08-21T11:23:24;100579.66;;;29.74;36.36
32642;BME280;19323;56.072;9.698;2022-08-21T11:26:08;100581.31;;;29.75;36.08
32642;BME280;19323;56.072;9.698;2022-08-21T11:28:43;100593.41;;;29.79;36.49
32642;BME280;19323;56.072;9.698;2022-08-21T11:31:28;100586.13;;;29.80;36.24
32642;BME280;19323;56.072;9.698;2022-08-21T11:39:45;100573.53;;;29.87;36.07
32642;BME280;19323;56.072;9.698;2022-08-21T11:42:19;100565.06;;;29.90;36.06
32642;BME280;19323;56.072;9.698;2022-08-21T11:51:10;100560.66;;;29.89;35.95
32642;BME280;19323;56.072;9.698;2022-08-21T11:54:21;100575.91;;;29.96;35.77
32642;BME280;19323;56.072;9.698;2022-08-21T11:57:03;100587.38;;;29.98;35.67
32642;BME280;19323;56.072;9.698;2022-08-21T12:02:42;100577.41;;;29.99;35.61
32642;BME280;19323;56.072;9.698;2022-08-21T12:05:21;100579.09;;;30.00;35.88
32642;BME280;19323;56.072;9.698;2022-08-21T12:08:04;100581.56;;;30.02;36.26
32642;BME280;19323;56.072;9.698;2022-08-21T12:10:34;100580.75;;;30.01;36.34
32642;BME280;19323;56.072;9.698;2022-08-21T12:13:21;100569.75;;;30.03;35.92
32642;BME280;19323;56.072;9.698;2022-08-21T12:16:34;100583.91;;;30.05;36.11
32642;BME280;19323;56.072;9.698;2022-08-21T12:19:06;100589.09;;;30.06;36.47
32642;BME280;19323;56.072;9.698;2022-08-21T12:21:34;100616.09;;;30.06;36.38
32642;BME280;19323;56.072;9.698;2022-08-21T12:26:52;100616.50;;;30.03;35.12
32642;BME280;19323;56.072;9.698;2022-08-21T12:32:20;100620.59;;;29.99;35.69
32642;BME280;19323;56.072;9.698;2022-08-21T12:35:15;100613.53;;;29.98;35.55
32642;BME280;19323;56.072;9.698;2022-08-21T12:38:06;100602.03;;;29.89;35.49
32642;BME280;19323;56.072;9.698;2022-08-21T12:40:42;100619.31;;;29.95;35.05
32642;BME280;19323;56.072;9.698;2022-08-21T12:43:19;100622.19;;;29.93;35.08
32642;BME280;19323;56.072;9.698;2022-08-21T12:45:49;100623.22;;;29.92;34.92
32642;BME280;19323;56.072;9.698;2022-08-21T12:48:25;100603.44;;;29.85;34.84
32642;BME280;19323;56.072;9.698;2022-08-21T12:51:04;100611.78;;;29.90;35.36
32642;BME280;19323;56.072;9.698;2022-08-21T12:53:57;100601.16;;;29.89;35.35
32642;BME280;19323;56.072;9.698;2022-08-21T12:56:28;100593.66;;;29.84;35.72
32642;BME280;19323;56.072;9.698;2022-08-21T12:59:00;100597.44;;;29.90;35.95
32642;BME280;19323;56.072;9.698;2022-08-21T13:01:33;100602.03;;;29.89;35.98
32642;BME280;19323;56.072;9.698;2022-08-21T13:04:10;100601.16;;;29.89;35.82
32642;BME280;19323;56.072;9.698;2022-08-21T13:06:41;100598.47;;;29.89;35.69
32642;BME280;19323;56.072;9.698;2022-08-21T13:09:12;100575.81;;;29.68;36.01
32642;BME280;19323;56.072;9.698;2022-08-21T13:11:41;100610.97;;;29.90;35.77
32642;BME280;19323;56.072;9.698;2022-08-21T13:14:39;100608.25;;;29.90;35.96
32642;BME280;19323;56.072;9.698;2022-08-21T13:17:11;100605.56;;;29.90;35.99
32642;BME280;19323;56.072;9.698;2022-08-21T13:20:07;100603.22;;;29.87;36.09
32642;BME280;19323;56.072;9.698;2022-08-21T13:22:43;100598.41;;;29.82;36.25
32642;BME280;19323;56.072;9.698;2022-08-21T13:25:12;100603.69;;;29.90;36.22
32642;BME280;19323;56.072;9.698;2022-08-21T13:27:39;100599.09;;;29.91;36.03
32642;BME280;19323;56.072;9.698;2022-08-21T13:30:18;100594.56;;;29.91;35.96
32642;BME280;19323;56.072;9.698;2022-08-21T13:32:50;100598.09;;;29.92;36.05
32642;BME280;19323;56.072;9.698;2022-08-21T13:35:25;100582.72;;;29.92;36.33
32642;BME280;19323;56.072;9.698;2022-08-21T13:37:52;100575.03;;;29.89;36.05
32642;BME280;19323;56.072;9.698;2022-08-21T13:40:30;100582.34;;;29.95;35.96
32642;BME280;19323;56.072;9.698;2022-08-21T13:42:59;100586.13;;;30.01;36.20
32642;BME280;19323;56.072;9.698;2022-08-21T13:45:31;100586.78;;;30.03;36.19
32642;BME280;19323;56.072;9.698;2022-08-21T13:48:00;100577.00;;;30.02;36.33
32642;BME280;19323;56.072;9.698;2022-08-21T13:50:33;100572.25;;;30.04;36.54
32642;BME280;19323;56.072;9.698;2022-08-21T13:53:04;100590.59;;;30.09;36.29
32642;BME280;19323;56.072;9.698;2022-08-21T13:55:42;100580.41;;;30.11;36.46
32642;BME280;19323;56.072;9.698;2022-08-21T13:58:11;100578.69;;;30.03;36.22
32642;BME280;19323;56.072;9.698;2022-08-21T14:00:49;100580.22;;;30.12;36.73
32642;BME280;19323;56.072;9.698;2022-08-21T14:03:27;100588.31;;;30.12;36.42
32642;BME280;19323;56.072;9.698;2022-08-21T14:05:56;100613.66;;;30.11;36.31
32642;BME280;19323;56.072;9.698;2022-08-21T14:08:35;100623.63;;;30.11;36.15
32642;BME280;19323;56.072;9.698;2022-08-21T14:11:05;100628.19;;;30.10;36.40
32642;BME280;19323;56.072;9.698;2022-08-21T14:16:17;100661.63;;;30.09;36.58
32642;BME280;19323;56.072;9.698;2022-08-21T14:18:49;100665.34;;;30.08;36.94
32642;BME280;19323;56.072;9.698;2022-08-21T14:21:26;100647.22;;;30.02;36.92
32642;BME280;19323;56.072;9.698;2022-08-21T14:24:07;100657.06;;;30.10;36.93
32642;BME280;19323;56.072;9.698;2022-08-21T14:26:36;100671.22;;;30.12;37.12